createdAt,value
2022-10-19T00:02:13.314Z,14.35
2022-10-19T00:04:40.586Z,17.45
2022-10-19T00:07:07.884Z,17.60
2022-10-19T00:09:35.067Z,11.18
2022-10-19T00:12:02.414Z,15.63
2022-10-19T00:14:29.684Z,13.20
2022-10-19T00:16:58.208Z,10.60
2022-10-19T00:19:25.434Z,12.63
2022-10-19T00:21:52.662Z,12.18
2022-10-19T00:24:19.944Z,15.52
2022-10-19T00:26:47.232Z,26.45
2022-10-19T00:29:14.680Z,14.50
2022-10-19T00:31:42.148Z,19.00
2022-10-19T00:34:09.993Z,14.75
2022-10-19T00:36:37.232Z,43.30
2022-10-19T00:39:04.557Z,11.10
2022-10-19T00:41:31.900Z,18.23
2022-10-19T00:43:59.205Z,19.45
2022-10-19T00:46:26.436Z,14.18
2022-10-19T00:48:53.689Z,19.05
2022-10-19T00:51:20.927Z,20.02
2022-10-19T00:53:48.218Z,14.20
2022-10-19T00:56:15.590Z,10.68
2022-10-19T00:58:42.993Z,13.73
2022-10-19T01:01:10.542Z,17.30
2022-10-19T01:03:37.985Z,9.43
2022-10-19T01:06:05.290Z,12.65
2022-10-19T01:08:32.507Z,21.27
2022-10-19T01:10:59.817Z,21.95
2022-10-19T01:13:30.226Z,14.55
2022-10-19T01:15:57.476Z,21.10
2022-10-19T01:18:24.672Z,16.45
2022-10-19T01:20:51.951Z,15.32
2022-10-19T01:23:19.208Z,14.82
2022-10-19T01:25:46.441Z,6.53
2022-10-19T01:28:13.701Z,12.90
2022-10-19T01:30:41.081Z,25.65
2022-10-19T01:33:08.293Z,9.38
2022-10-19T01:35:35.603Z,4.70
2022-10-19T01:38:02.855Z,11.18
2022-10-19T01:40:30.113Z,13.45
2022-10-19T01:42:57.311Z,16.45
2022-10-19T01:45:24.541Z,14.85
2022-10-19T01:47:51.738Z,19.92
2022-10-19T01:50:19.062Z,27.42
2022-10-19T01:52:46.234Z,5.38
2022-10-19T01:55:13.441Z,15.52
2022-10-19T01:57:40.723Z,15.10
2022-10-19T02:00:08.022Z,17.23
2022-10-19T02:02:40.964Z,13.15
2022-10-19T02:05:08.160Z,20.27
2022-10-19T02:07:35.351Z,23.42
2022-10-19T02:10:02.651Z,21.13
2022-10-19T02:12:29.889Z,24.23
2022-10-19T02:14:57.262Z,19.95
2022-10-19T02:17:24.755Z,21.35
2022-10-19T02:19:52.105Z,13.13
2022-10-19T02:22:19.403Z,11.27
2022-10-19T02:24:46.713Z,9.93
2022-10-19T02:27:13.974Z,11.82
2022-10-19T02:29:41.132Z,15.63
2022-10-19T02:32:08.406Z,14.95
2022-10-19T02:34:35.611Z,15.80
2022-10-19T02:37:02.887Z,12.48
2022-10-19T02:39:30.133Z,8.55
2022-10-19T02:41:57.357Z,21.65
2022-10-19T02:44:24.580Z,8.25
2022-10-19T02:46:51.858Z,14.73
2022-10-19T02:49:19.009Z,14.45
2022-10-19T02:51:46.277Z,14.70
2022-10-19T02:54:13.477Z,21.27
2022-10-19T02:56:40.716Z,17.83
2022-10-19T02:59:07.902Z,8.85
2022-10-19T03:01:35.196Z,21.00
2022-10-19T03:04:02.359Z,18.88
2022-10-19T03:06:29.558Z,8.77
2022-10-19T03:08:56.847Z,16.45
2022-10-19T03:11:24.042Z,14.80
2022-10-19T03:13:51.239Z,14.63
2022-10-19T03:16:18.534Z,18.77
2022-10-19T03:18:45.749Z,9.65
2022-10-19T03:21:12.991Z,18.55
2022-10-19T03:23:40.255Z,20.58
2022-10-19T03:26:09.982Z,18.65
2022-10-19T03:28:39.517Z,15.48
2022-10-19T03:31:06.767Z,16.80
2022-10-19T03:33:33.941Z,20.17
2022-10-19T03:36:01.159Z,18.33
2022-10-19T03:38:28.395Z,22.63
2022-10-19T03:40:55.614Z,17.98
2022-10-19T03:43:22.825Z,18.75
2022-10-19T03:45:50.004Z,15.73
2022-10-19T03:48:17.197Z,13.25
2022-10-19T03:50:44.370Z,26.58
2022-10-19T03:53:11.615Z,19.35
2022-10-19T03:55:38.787Z,17.48
2022-10-19T03:58:05.997Z,26.02
2022-10-19T04:00:33.214Z,28.75
2022-10-19T04:03:00.394Z,21.60
2022-10-19T04:05:27.558Z,16.13
2022-10-19T04:07:54.821Z,15.32
2022-10-19T04:10:21.973Z,14.57
2022-10-19T04:12:53.669Z,18.50
2022-10-19T04:15:21.228Z,20.98
2022-10-19T04:17:48.743Z,18.83
2022-10-19T04:20:16.006Z,16.30
2022-10-19T04:22:43.254Z,14.60
2022-10-19T04:25:12.441Z,24.75
2022-10-19T04:27:39.645Z,15.55
2022-10-19T04:30:06.953Z,12.18
2022-10-19T04:32:34.197Z,14.73
2022-10-19T04:35:01.429Z,17.83
2022-10-19T04:37:28.642Z,20.10
2022-10-19T04:39:55.882Z,21.38
2022-10-19T04:42:23.057Z,12.90
2022-10-19T04:44:50.462Z,26.17
2022-10-19T04:47:17.792Z,24.45
2022-10-19T04:49:45.086Z,20.38
2022-10-19T04:52:12.370Z,17.50
2022-10-19T04:54:39.681Z,26.95
2022-10-19T04:57:06.830Z,17.60
2022-10-19T04:59:34.166Z,18.65
2022-10-19T05:02:05.590Z,27.73
2022-10-19T05:04:33.700Z,28.63
2022-10-19T05:07:01.099Z,20.30
2022-10-19T05:09:28.428Z,16.90
2022-10-19T05:11:55.635Z,25.00
2022-10-19T05:14:22.995Z,26.42
2022-10-19T05:16:50.430Z,20.45
2022-10-19T05:19:17.670Z,20.80
2022-10-19T05:21:44.866Z,18.58
2022-10-19T05:24:12.237Z,14.95
2022-10-19T05:26:39.424Z,17.88
2022-10-19T05:29:06.847Z,30.05
2022-10-19T05:31:34.172Z,22.95
2022-10-19T05:34:01.564Z,42.17
2022-10-19T05:36:28.857Z,28.35
2022-10-19T05:38:56.198Z,27.15
2022-10-19T05:41:23.601Z,26.45
2022-10-19T05:43:50.990Z,18.17
2022-10-19T05:46:18.446Z,25.50
2022-10-19T05:48:45.740Z,19.95
2022-10-19T05:51:13.041Z,26.30
2022-10-19T05:53:40.359Z,25.23
2022-10-19T05:56:07.563Z,20.52
2022-10-19T05:58:34.891Z,17.63
2022-10-19T06:01:02.137Z,19.67
2022-10-19T06:03:29.454Z,28.23
2022-10-19T06:05:56.931Z,25.40
2022-10-19T06:08:24.151Z,26.63
2022-10-19T06:10:51.414Z,23.85
2022-10-19T06:13:18.682Z,10.63
2022-10-19T06:15:46.907Z,25.83
2022-10-19T06:18:14.197Z,27.75
2022-10-19T06:20:41.569Z,30.85
2022-10-19T06:23:08.725Z,35.63
2022-10-19T06:25:36.209Z,30.85
2022-10-19T06:28:03.496Z,23.30
2022-10-19T06:30:30.770Z,31.60
2022-10-19T06:32:58.267Z,28.27
2022-10-19T06:35:25.746Z,17.10
2022-10-19T06:37:53.104Z,19.95
2022-10-19T06:40:20.586Z,30.83
2022-10-19T06:42:47.882Z,36.42
2022-10-19T06:45:15.115Z,24.75
2022-10-19T06:47:42.424Z,27.25
2022-10-19T06:50:09.709Z,18.55
2022-10-19T06:52:37.484Z,17.70
2022-10-19T06:55:04.809Z,22.15
2022-10-19T06:57:32.477Z,30.17
2022-10-19T06:59:59.945Z,37.80
2022-10-19T07:02:27.209Z,18.08
2022-10-19T07:04:54.586Z,37.08
2022-10-19T07:07:21.751Z,23.77
2022-10-19T07:09:49.260Z,20.40
2022-10-19T07:12:16.570Z,26.02
2022-10-19T07:14:43.976Z,17.90
2022-10-19T07:17:11.349Z,27.88
2022-10-19T07:19:39.773Z,35.47
2022-10-19T07:22:06.955Z,24.33
2022-10-19T07:24:34.310Z,31.75
2022-10-19T07:27:01.593Z,33.65
2022-10-19T07:29:28.996Z,19.35
2022-10-19T07:31:56.279Z,16.08
2022-10-19T07:34:25.516Z,34.33
2022-10-19T07:36:55.582Z,20.58
2022-10-19T07:39:23.136Z,33.38
2022-10-19T07:41:50.469Z,24.25
2022-10-19T07:44:17.740Z,30.35
2022-10-19T07:46:45.205Z,18.65
2022-10-19T07:49:12.412Z,16.33
2022-10-19T07:51:39.670Z,19.92
2022-10-19T07:54:06.893Z,29.98
2022-10-19T07:56:34.197Z,18.85
2022-10-19T07:59:01.577Z,30.10
2022-10-19T08:01:28.887Z,17.75
2022-10-19T08:06:43.385Z,28.10
2022-10-19T08:09:15.672Z,32.50
2022-10-19T08:11:50.237Z,17.08
2022-10-19T08:14:17.425Z,29.48
2022-10-19T08:16:44.712Z,22.75
2022-10-19T08:19:11.923Z,26.27
2022-10-19T08:21:39.161Z,37.38
2022-10-19T08:24:06.532Z,21.63
2022-10-19T08:26:33.761Z,31.63
2022-10-19T08:29:01.041Z,23.83
2022-10-19T08:31:28.302Z,22.95
2022-10-19T08:33:55.464Z,21.50
2022-10-19T08:36:22.795Z,29.95
2022-10-19T08:38:50.018Z,20.15
2022-10-19T08:41:17.338Z,23.55
2022-10-19T08:43:44.560Z,23.55
2022-10-19T08:46:13.004Z,22.52
2022-10-19T08:48:43.053Z,29.23
2022-10-19T08:51:10.462Z,17.63
2022-10-19T08:53:37.643Z,18.25
2022-10-19T08:56:05.153Z,24.20
2022-10-19T08:58:32.544Z,25.55
2022-10-19T09:00:59.739Z,34.75
2022-10-19T09:03:43.877Z,23.75
2022-10-19T09:06:19.880Z,27.88
2022-10-19T09:08:47.326Z,29.58
2022-10-19T09:11:14.536Z,22.27
2022-10-19T09:14:00.561Z,26.85
2022-10-19T09:16:29.053Z,23.95
2022-10-19T09:18:56.438Z,19.95
2022-10-19T09:21:30.984Z,25.23
2022-10-19T09:24:05.302Z,23.15
2022-10-19T09:26:32.515Z,31.63
2022-10-19T09:28:59.758Z,19.75
2022-10-19T09:31:30.362Z,24.02
2022-10-19T09:33:58.919Z,22.48
2022-10-19T09:36:33.235Z,18.33
2022-10-19T09:39:13.493Z,27.50
2022-10-19T09:41:40.762Z,31.40
2022-10-19T09:44:08.103Z,15.95
2022-10-19T09:46:38.582Z,21.92
2022-10-19T09:49:06.240Z,23.80
2022-10-19T09:51:33.526Z,28.23
2022-10-19T09:54:00.774Z,26.50
2022-10-19T09:56:27.980Z,26.90
2022-10-19T09:58:55.239Z,18.40
2022-10-19T10:01:22.574Z,30.23
2022-10-19T10:03:52.513Z,32.17
2022-10-19T10:06:23.324Z,26.08
2022-10-19T10:08:50.788Z,25.02
2022-10-19T10:11:18.140Z,29.05
2022-10-19T10:13:45.379Z,28.60
2022-10-19T10:16:13.019Z,24.98
2022-10-19T10:18:40.204Z,16.98
2022-10-19T10:21:07.548Z,20.30
2022-10-19T10:23:36.568Z,23.23
2022-10-19T10:26:04.064Z,15.77
2022-10-19T10:28:31.305Z,27.83
2022-10-19T10:30:58.606Z,18.75
2022-10-19T10:33:43.755Z,32.70
2022-10-19T10:36:12.026Z,35.78
2022-10-19T10:38:39.189Z,16.85
2022-10-19T10:41:08.370Z,31.85
2022-10-19T10:43:35.727Z,25.20
2022-10-19T10:46:02.954Z,26.33
2022-10-19T10:48:30.174Z,29.65
2022-10-19T10:50:57.447Z,28.30
2022-10-19T10:53:24.626Z,20.92
2022-10-19T10:55:51.910Z,26.13
2022-10-19T10:58:19.153Z,27.20
2022-10-19T11:00:46.516Z,17.33
2022-10-19T11:03:13.863Z,24.25
2022-10-19T11:05:41.477Z,33.15
2022-10-19T11:08:08.806Z,22.95
2022-10-19T11:10:36.234Z,19.55
2022-10-19T11:13:03.568Z,21.13
2022-10-19T11:15:30.827Z,33.40
2022-10-19T11:17:58.076Z,21.63
2022-10-19T11:20:26.488Z,24.65
2022-10-19T11:22:53.793Z,26.08
2022-10-19T11:25:21.238Z,24.92
2022-10-19T11:27:48.534Z,24.15
2022-10-19T11:30:15.893Z,31.25
2022-10-19T11:32:46.002Z,25.52
2022-10-19T11:35:13.615Z,27.45
2022-10-19T11:37:49.447Z,24.48
2022-10-19T11:40:21.258Z,26.77
2022-10-19T11:42:49.519Z,19.05
2022-10-19T11:45:16.792Z,35.28
2022-10-19T11:47:50.953Z,38.05
2022-10-19T11:50:19.600Z,21.17
2022-10-19T11:52:46.902Z,28.58
2022-10-19T11:55:14.202Z,24.23
2022-10-19T11:57:41.502Z,37.30
2022-10-19T12:00:15.479Z,39.72
2022-10-19T12:02:54.505Z,23.67
2022-10-19T12:05:21.728Z,32.17
2022-10-19T12:07:49.219Z,30.17
2022-10-19T12:10:16.988Z,27.17
2022-10-19T12:12:44.582Z,28.83
2022-10-19T12:15:11.903Z,23.13
2022-10-19T12:17:39.168Z,20.25
2022-10-19T12:20:06.426Z,17.67
2022-10-19T12:22:34.684Z,35.13
2022-10-19T12:25:02.002Z,24.75
2022-10-19T12:27:29.246Z,35.08
2022-10-19T12:29:56.453Z,23.70
2022-10-19T12:32:23.844Z,24.17
2022-10-19T12:34:51.345Z,23.75
2022-10-19T12:37:18.564Z,37.90
2022-10-19T12:39:46.568Z,30.67
2022-10-19T12:42:13.908Z,22.55
2022-10-19T12:44:41.137Z,30.25
2022-10-19T12:47:08.416Z,19.90
2022-10-19T12:49:36.687Z,19.27
2022-10-19T12:52:04.074Z,24.00
2022-10-19T12:54:31.551Z,30.92
2022-10-19T12:57:01.768Z,24.83
2022-10-19T12:59:29.181Z,36.65
2022-10-19T13:01:57.119Z,22.05
2022-10-19T13:04:24.569Z,26.15
2022-10-19T13:06:51.847Z,28.90
2022-10-19T13:09:19.392Z,31.35
2022-10-19T13:11:46.633Z,22.88
2022-10-19T13:14:13.862Z,19.02
2022-10-19T13:16:41.160Z,23.25
2022-10-19T13:19:08.486Z,30.05
2022-10-19T13:21:37.660Z,17.48
2022-10-19T13:24:06.757Z,20.20
2022-10-19T13:26:37.794Z,26.98
2022-10-19T13:29:07.692Z,23.58
2022-10-19T13:31:37.520Z,20.48
2022-10-19T13:34:05.366Z,20.48
2022-10-19T13:36:38.764Z,26.92
2022-10-19T13:39:08.531Z,20.70
2022-10-19T13:41:36.216Z,21.95
2022-10-19T13:44:03.766Z,28.10
2022-10-19T13:46:31.521Z,19.90
2022-10-19T13:48:59.555Z,34.90
2022-10-19T13:51:27.323Z,25.38
2022-10-19T13:53:55.996Z,31.95
2022-10-19T13:56:23.659Z,22.45
2022-10-19T13:58:51.229Z,20.33
2022-10-19T14:01:18.948Z,15.77
2022-10-19T14:03:52.806Z,24.98
2022-10-19T14:06:52.973Z,26.08
2022-10-19T14:09:20.806Z,28.17
2022-10-19T14:11:48.911Z,28.00
2022-10-19T14:14:17.127Z,23.60
2022-10-19T14:16:57.216Z,20.58
2022-10-19T14:19:30.182Z,39.63
2022-10-19T14:21:57.785Z,27.65
2022-10-19T14:24:24.952Z,30.75
2022-10-19T14:26:53.540Z,24.58
2022-10-19T14:29:21.041Z,25.92
2022-10-19T14:31:48.662Z,25.35
2022-10-19T14:34:16.602Z,18.85
2022-10-19T14:36:45.043Z,23.70
2022-10-19T14:39:14.423Z,43.13
2022-10-19T14:41:42.813Z,28.10
2022-10-19T14:44:10.364Z,30.27
2022-10-19T14:46:37.899Z,28.58
2022-10-19T14:49:06.985Z,27.77
2022-10-19T14:51:35.371Z,22.35
2022-10-19T14:54:06.727Z,46.92
2022-10-19T14:56:35.701Z,31.40
2022-10-19T14:59:03.236Z,31.90
2022-10-19T15:01:39.929Z,34.28
2022-10-19T15:04:11.269Z,27.98
2022-10-19T15:06:46.595Z,27.17
2022-10-19T15:09:30.269Z,28.10
2022-10-19T15:12:06.640Z,33.90
2022-10-19T15:14:33.832Z,37.58
2022-10-19T15:17:03.717Z,39.25
2022-10-19T15:19:32.522Z,31.30
2022-10-19T15:22:00.299Z,21.65
2022-10-19T15:24:31.876Z,28.75
2022-10-19T15:27:09.088Z,37.58
2022-10-19T15:29:37.610Z,21.15
2022-10-19T15:32:05.661Z,23.55
2022-10-19T15:34:35.056Z,32.28
2022-10-19T15:37:05.665Z,28.90
2022-10-19T15:39:43.333Z,26.23
2022-10-19T15:42:13.962Z,28.98
2022-10-19T15:44:41.627Z,35.00
2022-10-19T15:47:10.870Z,33.70
2022-10-19T15:49:40.575Z,26.77
2022-10-19T15:52:11.037Z,38.13
2022-10-19T15:54:40.934Z,22.85
2022-10-19T15:57:12.186Z,31.70
2022-10-19T15:59:49.790Z,26.45
2022-10-19T16:02:17.348Z,28.88
2022-10-19T16:04:45.002Z,24.17
2022-10-19T16:07:15.954Z,25.45
2022-10-19T16:09:47.235Z,24.13
2022-10-19T16:12:14.662Z,22.73
2022-10-19T16:14:48.364Z,31.98
2022-10-19T16:17:20.531Z,29.92
2022-10-19T16:19:55.630Z,32.55
2022-10-19T16:22:24.511Z,30.52
2022-10-19T16:24:53.350Z,35.28
2022-10-19T16:27:24.991Z,29.33
2022-10-19T16:29:52.444Z,32.75
2022-10-19T16:32:21.192Z,33.45
2022-10-19T16:34:48.980Z,43.70
2022-10-19T16:37:20.882Z,37.13
2022-10-19T16:39:49.688Z,32.38
2022-10-19T16:42:17.159Z,25.88
2022-10-19T16:44:44.558Z,29.75
2022-10-19T16:47:11.936Z,29.63
2022-10-19T16:49:39.349Z,26.95
2022-10-19T16:52:06.648Z,35.25
2022-10-19T16:54:36.226Z,30.50
2022-10-19T16:57:08.642Z,31.27
2022-10-19T16:59:37.225Z,25.00
2022-10-19T17:02:04.600Z,23.67
2022-10-19T17:04:34.276Z,34.72
2022-10-19T17:07:01.546Z,32.28
2022-10-19T17:09:44.289Z,31.70
2022-10-19T17:12:11.735Z,36.47
2022-10-19T17:14:38.995Z,40.08
2022-10-19T17:17:06.791Z,23.85
2022-10-19T17:19:34.101Z,40.08
2022-10-19T17:22:02.996Z,38.42
2022-10-19T17:24:30.449Z,31.02
2022-10-19T17:26:57.884Z,37.75
2022-10-19T17:29:25.177Z,27.42
2022-10-19T17:31:52.426Z,34.10
2022-10-19T17:34:19.683Z,34.13
2022-10-19T17:36:46.949Z,33.80
2022-10-19T17:39:14.754Z,27.83
2022-10-19T17:41:42.020Z,38.85
2022-10-19T17:44:09.837Z,38.30
2022-10-19T17:46:37.679Z,26.48
2022-10-19T17:49:05.756Z,32.50
2022-10-19T17:51:36.762Z,36.15
2022-10-19T17:54:08.817Z,36.70
2022-10-19T17:56:39.093Z,41.47
2022-10-19T17:59:09.365Z,28.90
2022-10-19T18:01:38.680Z,40.25
2022-10-19T18:04:08.531Z,34.97
2022-10-19T18:06:38.397Z,40.30
2022-10-19T18:09:06.251Z,38.55
2022-10-19T18:11:36.210Z,31.02
2022-10-19T18:14:03.929Z,37.33
2022-10-19T18:16:31.179Z,46.53
2022-10-19T18:18:58.474Z,35.92
2022-10-19T18:21:27.850Z,36.80
2022-10-19T18:23:55.038Z,29.83
2022-10-19T18:26:22.431Z,45.95
2022-10-19T18:28:49.737Z,51.13
2022-10-19T18:31:17.008Z,42.70
2022-10-19T18:33:44.245Z,45.65
2022-10-19T18:36:11.553Z,44.08
2022-10-19T18:38:38.832Z,50.65
2022-10-19T18:41:06.185Z,25.75
2022-10-19T18:43:33.563Z,49.28
2022-10-19T18:46:00.779Z,48.22
2022-10-19T18:48:28.083Z,37.88
2022-10-19T18:50:55.537Z,32.30
2022-10-19T18:53:22.923Z,31.75
2022-10-19T18:55:50.142Z,35.92
2022-10-19T18:58:17.570Z,33.20
2022-10-19T19:00:45.780Z,34.60
2022-10-19T19:03:13.268Z,32.80
2022-10-19T19:05:40.545Z,34.40
2022-10-19T19:08:07.812Z,41.60
2022-10-19T19:10:35.076Z,40.78
2022-10-19T19:13:02.334Z,41.33
2022-10-19T19:15:29.592Z,35.42
2022-10-19T19:17:56.874Z,34.55
2022-10-19T19:20:24.323Z,38.17
2022-10-19T19:22:51.568Z,36.97
2022-10-19T19:25:18.853Z,37.72
2022-10-19T19:27:46.145Z,31.02
2022-10-19T19:30:13.312Z,35.60
2022-10-19T19:32:40.609Z,43.10
2022-10-19T19:35:07.868Z,43.72
2022-10-19T19:37:35.330Z,26.77
2022-10-19T19:40:02.914Z,35.35
2022-10-19T19:42:30.294Z,38.67
2022-10-19T19:44:57.763Z,34.15
2022-10-19T19:47:25.193Z,38.47
2022-10-19T19:49:52.748Z,36.60
2022-10-19T19:52:20.318Z,43.38
2022-10-19T19:54:47.637Z,33.42
2022-10-19T19:57:15.128Z,36.50
2022-10-19T19:59:42.703Z,40.35
2022-10-19T20:02:09.968Z,40.75
2022-10-19T20:04:37.573Z,32.08
2022-10-19T20:07:05.246Z,36.10
2022-10-19T20:09:32.506Z,37.17
2022-10-19T20:11:59.818Z,34.72
2022-10-19T20:14:27.194Z,31.35
2022-10-19T20:16:54.559Z,39.70
2022-10-19T20:19:22.161Z,34.35
2022-10-19T20:21:49.474Z,36.67
2022-10-19T20:24:17.141Z,33.50
2022-10-19T20:26:44.429Z,31.55
2022-10-19T20:29:11.694Z,37.78
2022-10-19T20:31:40.424Z,31.20
2022-10-19T20:34:08.074Z,34.53
2022-10-19T20:36:35.365Z,35.58
2022-10-19T20:39:02.593Z,35.55
2022-10-19T20:41:29.903Z,36.92
2022-10-19T20:43:57.246Z,35.53
2022-10-19T20:46:24.776Z,37.88
2022-10-19T20:48:52.306Z,49.30
2022-10-19T20:51:20.662Z,31.73
2022-10-19T20:53:48.000Z,37.13
2022-10-19T20:56:15.274Z,41.42
2022-10-19T20:58:46.198Z,39.63
2022-10-19T21:01:13.553Z,43.42
2022-10-19T21:03:40.790Z,38.75
2022-10-19T21:06:08.061Z,37.72
2022-10-19T21:08:35.439Z,40.10
2022-10-19T21:11:02.825Z,33.67
2022-10-19T21:13:30.160Z,44.40
2022-10-19T21:15:57.437Z,50.38
2022-10-19T21:18:24.676Z,39.28
2022-10-19T21:20:51.830Z,39.00
2022-10-19T21:23:19.136Z,37.03
2022-10-19T21:25:46.397Z,45.88
2022-10-19T21:28:14.387Z,43.83
2022-10-19T21:30:41.742Z,48.22
2022-10-19T21:33:09.134Z,44.47
2022-10-19T21:35:36.418Z,38.25
2022-10-19T21:38:03.741Z,40.75
2022-10-19T21:40:31.051Z,35.47
2022-10-19T21:42:58.284Z,50.78
2022-10-19T21:45:30.316Z,47.33
2022-10-19T21:47:58.204Z,44.33
2022-10-19T21:50:25.379Z,40.53
2022-10-19T21:52:53.038Z,37.65
2022-10-19T21:55:20.302Z,29.98
2022-10-19T21:57:49.821Z,42.97
2022-10-19T22:00:17.214Z,39.80
2022-10-19T22:02:44.450Z,41.13
2022-10-19T22:05:11.686Z,40.55
2022-10-19T22:07:39.058Z,49.35
2022-10-19T22:10:06.434Z,38.30
2022-10-19T22:12:34.104Z,38.55
2022-10-19T22:15:01.652Z,38.40
2022-10-19T22:17:28.987Z,42.53
2022-10-19T22:19:56.307Z,41.25
2022-10-19T22:22:23.624Z,46.22
2022-10-19T22:24:50.792Z,50.53
2022-10-19T22:27:18.315Z,35.97
2022-10-19T22:29:45.677Z,41.97
2022-10-19T22:32:13.147Z,33.95
2022-10-19T22:34:40.386Z,42.08
2022-10-19T22:37:07.632Z,47.55
2022-10-19T22:39:34.882Z,37.85
2022-10-19T22:42:20.698Z,44.63
2022-10-19T22:44:48.024Z,40.60
2022-10-19T22:47:15.392Z,41.33
2022-10-19T22:49:42.729Z,59.30
2022-10-19T22:52:09.939Z,42.72
2022-10-19T22:54:37.175Z,43.00
2022-10-19T22:57:04.420Z,46.80
2022-10-19T22:59:31.869Z,38.42
2022-10-19T23:01:59.171Z,44.00
2022-10-19T23:04:26.509Z,34.58
2022-10-19T23:06:53.845Z,39.08
2022-10-19T23:09:21.390Z,42.15
2022-10-19T23:11:49.065Z,38.63
2022-10-19T23:14:16.340Z,48.95
2022-10-19T23:16:43.570Z,40.45
2022-10-19T23:19:11.021Z,38.58
2022-10-19T23:21:38.250Z,39.63
2022-10-19T23:24:05.458Z,32.17
2022-10-19T23:26:32.821Z,37.42
2022-10-19T23:29:18.890Z,37.10
2022-10-19T23:31:46.208Z,27.92
2022-10-19T23:34:13.450Z,38.90
2022-10-19T23:36:40.772Z,43.40
2022-10-19T23:39:08.052Z,39.10
2022-10-19T23:41:38.455Z,39.05
2022-10-19T23:44:05.632Z,42.47
2022-10-19T23:46:33.079Z,42.65
2022-10-19T23:49:00.252Z,54.17
2022-10-19T23:51:27.522Z,35.15
2022-10-19T23:53:55.223Z,40.03
2022-10-19T23:56:22.446Z,46.08
2022-10-19T23:58:49.761Z,45.65
